Time;durP1;ratioP1;P1;durP2;ratioP2;P2;SDS_P1;SDS_P2;PMS_P1;PMS_P2;Temp;Humidity;BMP_temperature;BMP_pressure;BME280_temperature;BME280_humidity;BME280_pressure;Samples;Min_cycle;Max_cycle;Signal;HPM_P1;HPM_P2
2023/06/16 00:00:59;;;;;;;11.05;7.90;;;;;;;-146.27;74.12;81512.47;5029759;28;20033;-68
2023/06/16 00:03:25;;;;;;;16.50;8.13;;;;;;;-146.27;74.25;81540.56;5018520;28;20560;-69
2023/06/16 00:05:51;;;;;;;12.57;8.25;;;;;;;-146.27;74.17;81532.53;5021194;28;20025;-68
2023/06/16 00:08:16;;;;;;;11.45;7.97;;;;;;;-146.27;74.37;81500.41;5025750;28;20021;-68
2023/06/16 00:10:42;;;;;;;15.25;7.93;;;;;;;-146.27;74.22;81550.63;5024192;28;20786;-70
2023/06/16 00:13:07;;;;;;;11.75;8.85;;;;;;;-146.27;74.17;81576.72;5025801;28;20029;-68
2023/06/16 00:15:33;;;;;;;10.57;8.07;;;;;;;-146.27;74.24;81580.75;5032011;28;20045;-68
2023/06/16 00:18:00;;;;;;;11.90;8.57;;;;;;;-146.27;74.52;81596.81;5028161;28;20034;-68
2023/06/16 00:20:25;;;;;;;11.25;8.25;;;;;;;-146.27;74.41;81572.72;5019934;28;20072;-67
2023/06/16 00:22:51;;;;;;;11.18;8.27;;;;;;;-146.27;74.66;81604.84;5028539;28;20477;-67
2023/06/16 00:25:19;;;;;;;13.57;8.52;;;;;;;-146.27;74.79;81560.66;5031980;28;20048;-68
2023/06/16 00:27:45;;;;;;;14.07;9.30;;;;;;;-146.27;75.43;81592.78;5024779;28;20042;-69
2023/06/16 00:30:11;;;;;;;12.85;8.88;;;;;;;-146.27;75.54;81596.81;5014703;28;20033;-68
2023/06/16 00:32:36;;;;;;;14.68;7.82;;;;;;;-146.27;75.34;81594.81;5018862;28;20025;-68
2023/06/16 00:35:02;;;;;;;11.77;9.13;;;;;;;-146.27;75.67;81614.88;5032945;28;20056;-69
2023/06/16 00:37:27;;;;;;;10.73;8.50;;;;;;;-146.27;75.49;81552.63;5020407;28;20021;-69
2023/06/16 00:39:53;;;;;;;13.95;8.93;;;;;;;-146.27;75.91;81665.09;5032020;28;20080;-68
2023/06/16 00:42:19;;;;;;;15.02;8.50;;;;;;;-146.27;76.21;81667.09;5029548;28;20033;-69
2023/06/16 00:44:44;;;;;;;12.73;9.25;;;;;;;-146.27;76.39;81667.09;5030087;28;20485;-69
2023/06/16 00:47:09;;;;;;;13.40;8.85;;;;;;;-146.27;76.52;81693.22;5030630;28;20106;-68
2023/06/16 00:49:36;;;;;;;10.98;8.20;;;;;;;-146.27;76.81;81713.31;5032418;28;20084;-68
2023/06/16 00:52:05;;;;;;;14.23;9.07;;;;;;;-146.27;77.20;81673.13;5033354;28;20033;-68
2023/06/16 00:54:32;;;;;;;12.57;9.30;;;;;;;-146.27;76.95;81721.34;5030673;28;20029;-69
2023/06/16 00:56:58;;;;;;;11.93;8.25;;;;;;;-146.27;76.84;81675.16;5029344;28;20037;-68
2023/06/16 00:59:26;;;;;;;10.85;9.02;;;;;;;-146.27;77.16;81693.22;5022848;28;20026;-69
2023/06/16 01:01:52;;;;;;;14.02;8.88;;;;;;;-146.27;77.42;81719.31;5030520;28;20030;-68
2023/06/16 01:04:20;;;;;;;17.20;9.68;;;;;;;-146.27;77.40;81717.31;5024269;28;20092;-68
2023/06/16 01:06:57;;;;;;;15.85;9.93;;;;;;;-146.27;76.76;81719.31;5031438;28;20033;-68
2023/06/16 01:09:46;;;;;;;14.43;9.68;;;;;;;-146.27;77.34;81713.31;5032470;28;20044;-68
2023/06/16 01:12:25;;;;;;;11.73;9.20;;;;;;;-146.27;77.04;81717.31;5029849;28;20032;-68
2023/06/16 01:15:05;;;;;;;13.35;9.65;;;;;;;-146.27;77.15;81757.50;5030136;28;20551;-68
2023/06/16 01:17:37;;;;;;;16.27;9.35;;;;;;;-146.27;77.46;81759.50;5030955;28;20025;-68
2023/06/16 01:20:28;;;;;;;13.10;9.52;;;;;;;-146.27;77.50;81749.47;5030028;28;20025;-68
2023/06/16 01:23:20;;;;;;;12.45;8.98;;;;;;;-146.27;77.45;81717.31;5026870;28;20029;-69
2023/06/16 01:25:48;;;;;;;13.85;9.85;;;;;;;-146.27;77.58;81753.47;5023532;28;20099;-68
2023/06/16 01:28:18;;;;;;;13.98;10.75;;;;;;;-146.27;78.18;81737.41;5027955;28;20029;-69
2023/06/16 01:30:44;;;;;;;12.88;9.68;;;;;;;-146.27;77.86;81809.72;5032295;28;20037;-69
2023/06/16 01:33:12;;;;;;;13.98;9.20;;;;;;;-146.27;77.99;81793.66;5042922;28;20029;-68
2023/06/16 01:35:38;;;;;;;18.13;9.52;;;;;;;-146.27;78.03;81815.72;5032798;28;20025;-68
2023/06/16 01:38:04;;;;;;;15.52;10.40;;;;;;;-146.27;77.80;81813.72;5030933;28;20052;-68
2023/06/16 01:40:30;;;;;;;11.30;9.55;;;;;;;-146.27;78.21;81813.72;5028073;28;20482;-70
2023/06/16 01:42:57;;;;;;;17.67;10.20;;;;;;;-146.27;78.17;81781.59;5030870;28;20051;-68
2023/06/16 01:45:23;;;;;;;12.13;10.35;;;;;;;-146.27;78.24;81831.81;5018200;28;20033;-69
2023/06/16 01:47:49;;;;;;;11.13;9.57;;;;;;;-146.27;78.42;81809.72;5020283;28;20056;-69
2023/06/16 01:50:15;;;;;;;13.10;9.65;;;;;;;-146.27;78.48;81805.69;5031753;28;20112;-69
2023/06/16 01:52:41;;;;;;;13.70;9.75;;;;;;;-146.27;78.63;81799.66;5031006;28;20108;-68
2023/06/16 01:55:06;;;;;;;14.70;9.98;;;;;;;-146.27;78.68;81867.97;5018443;28;20076;-68
2023/06/16 01:57:33;;;;;;;15.10;9.75;;;;;;;-146.27;78.90;81847.88;5025479;28;20109;-68
2023/06/16 02:00:10;;;;;;;17.30;10.30;;;;;;;-146.27;79.01;81853.91;5021606;28;20512;-68
2023/06/16 02:02:40;;;;;;;13.07;10.30;;;;;;;-146.27;79.38;81871.97;5030407;28;20481;-68
2023/06/16 02:05:10;;;;;;;18.42;11.27;;;;;;;-146.27;79.34;81878.00;5031396;28;20033;-68
2023/06/16 02:07:41;;;;;;;14.35;10.00;;;;;;;-146.27;79.09;81894.06;5029300;28;20056;-68
2023/06/16 02:10:07;;;;;;;21.10;11.05;;;;;;;-146.27;78.71;81900.09;5016766;28;20041;-68
2023/06/16 02:12:33;;;;;;;10.98;9.35;;;;;;;-146.27;78.89;81900.09;5029755;28;20061;-69
2023/06/16 02:14:59;;;;;;;18.10;10.35;;;;;;;-146.27;78.71;81902.09;5023730;28;20056;-69
2023/06/16 02:17:28;;;;;;;13.98;9.98;;;;;;;-146.27;79.28;81898.09;5023747;28;20037;-68
2023/06/16 02:19:54;;;;;;;12.63;10.50;;;;;;;-146.27;79.59;81902.09;5028265;28;20029;-68
2023/06/16 02:22:21;;;;;;;13.80;9.25;;;;;;;-146.27;79.27;81914.16;5025453;28;20026;-68
2023/06/16 02:24:47;;;;;;;12.05;9.38;;;;;;;-146.27;79.91;81918.16;5021715;28;20120;-71
2023/06/16 02:27:13;;;;;;;16.30;9.55;;;;;;;-146.27;79.67;81930.22;5028491;28;20063;-71
2023/06/16 02:29:42;;;;;;;12.50;9.90;;;;;;;-146.27;79.59;81849.88;5024936;28;20037;-71
2023/06/16 02:32:07;;;;;;;17.65;11.25;;;;;;;-146.27;80.21;81916.16;5029387;28;20436;-71
2023/06/16 02:34:33;;;;;;;15.20;10.18;;;;;;;-146.27;79.93;81934.25;5030305;28;20037;-71
2023/06/16 02:37:00;;;;;;;16.05;9.85;;;;;;;-146.27;79.60;81944.28;5027564;28;20031;-71
2023/06/16 02:39:26;;;;;;;14.30;10.23;;;;;;;-146.27;80.02;81908.13;5012262;28;20030;-72
2023/06/16 02:41:51;;;;;;;11.00;9.30;;;;;;;-146.27;79.81;81930.22;5019925;28;20396;-71
2023/06/16 02:44:17;;;;;;;17.63;10.73;;;;;;;-146.27;80.36;81910.13;5030301;28;20044;-71
2023/06/16 02:46:42;;;;;;;14.15;9.65;;;;;;;-146.27;80.06;81924.19;5028686;28;20041;-71
2023/06/16 02:49:07;;;;;;;20.42;10.05;;;;;;;-146.27;80.15;81950.31;5031034;28;20099;-72
2023/06/16 02:51:34;;;;;;;12.75;10.05;;;;;;;-146.27;80.33;81974.41;5025209;28;20041;-72
2023/06/16 02:54:00;;;;;;;15.13;10.70;;;;;;;-146.27;80.55;81990.47;5028454;28;20029;-72
2023/06/16 02:56:28;;;;;;;14.93;10.00;;;;;;;-146.27;80.59;82006.53;5029020;28;20387;-71
2023/06/16 02:58:53;;;;;;;14.95;10.63;;;;;;;-146.27;80.56;82002.53;5029584;28;20041;-72
2023/06/16 03:01:21;;;;;;;13.68;9.73;;;;;;;-146.27;80.49;82006.53;5017918;28;20030;-71
2023/06/16 03:03:48;;;;;;;12.52;9.23;;;;;;;-146.27;80.28;82038.69;5029207;28;20041;-71
2023/06/16 03:06:14;;;;;;;15.07;9.63;;;;;;;-146.27;81.23;82038.69;5025791;28;20064;-71
2023/06/16 03:08:39;;;;;;;15.50;10.38;;;;;;;-146.27;80.89;82046.72;5030551;28;20104;-71
2023/06/16 03:11:05;;;;;;;11.35;9.52;;;;;;;-146.27;81.01;82060.78;5030753;28;20156;-71
2023/06/16 03:13:30;;;;;;;16.27;10.70;;;;;;;-146.27;80.62;82022.63;5030583;28;20374;-71
2023/06/16 03:15:56;;;;;;;15.40;10.75;;;;;;;-146.27;81.40;82064.81;5047466;28;20392;-71
2023/06/16 03:18:21;;;;;;;14.43;10.18;;;;;;;-146.27;81.48;82046.72;5049560;28;20385;-71
2023/06/16 03:20:47;;;;;;;15.80;10.32;;;;;;;-146.27;81.90;82064.81;5031561;28;20036;-71
2023/06/16 03:23:14;;;;;;;16.42;10.95;;;;;;;-146.27;81.59;82046.72;5029540;28;20039;-71
2023/06/16 03:25:39;;;;;;;14.70;10.73;;;;;;;-146.27;81.76;82070.81;5028411;28;20030;-71
2023/06/16 03:28:07;;;;;;;17.52;9.88;;;;;;;-146.27;81.87;82084.88;5026894;28;20024;-71
2023/06/16 03:30:32;;;;;;;12.07;10.00;;;;;;;-146.27;81.66;82046.72;5024865;28;20105;-71
2023/06/16 03:32:58;;;;;;;16.50;10.32;;;;;;;-146.27;81.71;82115.00;5027419;28;20117;-71
2023/06/16 03:35:23;;;;;;;13.48;10.40;;;;;;;-146.27;81.87;82111.00;5029064;28;20128;-71
2023/06/16 03:37:49;;;;;;;14.10;9.77;;;;;;;-146.27;81.90;82102.97;5029723;28;20533;-71
2023/06/16 03:40:14;;;;;;;12.48;9.30;;;;;;;-146.27;81.79;82119.03;5023703;28;20097;-71
2023/06/16 03:42:40;;;;;;;12.48;9.60;;;;;;;-146.27;82.05;82129.06;5025971;28;20025;-71
2023/06/16 03:45:06;;;;;;;15.05;10.18;;;;;;;-146.27;82.38;82139.13;5029602;28;20029;-71
2023/06/16 03:47:31;;;;;;;14.80;10.05;;;;;;;-146.27;82.80;82167.25;5033643;28;20040;-72
2023/06/16 03:49:57;;;;;;;13.13;9.40;;;;;;;-146.27;82.46;82127.06;5033817;28;20381;-71
2023/06/16 03:52:23;;;;;;;14.38;10.25;;;;;;;-146.27;83.01;82143.13;5031298;28;20041;-71
2023/06/16 03:54:49;;;;;;;12.32;9.25;;;;;;;-146.27;82.80;82165.22;5032874;28;20535;-71
2023/06/16 03:57:15;;;;;;;12.40;9.05;;;;;;;-146.27;82.36;82139.13;5031115;28;20499;-71
2023/06/16 03:59:40;;;;;;;13.95;8.98;;;;;;;-146.27;82.57;82135.09;5024364;28;20124;-71
2023/06/16 04:02:08;;;;;;;10.65;8.80;;;;;;;-146.27;82.91;82163.22;5027232;28;20040;-71
2023/06/16 04:04:34;;;;;;;11.70;9.10;;;;;;;-146.27;82.81;82131.09;5027053;28;20036;-71
2023/06/16 04:07:02;;;;;;;11.68;9.35;;;;;;;-146.27;82.46;82159.22;5024762;28;20101;-72
2023/06/16 04:09:29;;;;;;;11.23;8.80;;;;;;;-146.27;83.00;82159.22;5031063;28;20068;-71
2023/06/16 04:11:54;;;;;;;15.40;9.10;;;;;;;-146.27;82.93;82147.16;5031375;28;20108;-71
2023/06/16 04:14:20;;;;;;;10.60;8.48;;;;;;;-146.27;82.54;82115.00;5030652;28;20235;-71
2023/06/16 04:16:45;;;;;;;13.75;8.25;;;;;;;-146.27;82.55;82086.91;5021843;28;20037;-71
2023/06/16 04:19:11;;;;;;;15.27;9.38;;;;;;;-146.27;82.20;82100.97;5031881;28;20100;-71
2023/06/16 04:21:37;;;;;;;15.15;8.10;;;;;;;-146.27;81.65;82078.84;5025163;28;20034;-72
2023/06/16 04:24:03;;;;;;;14.00;8.05;;;;;;;-146.27;81.86;82056.75;5023519;28;20025;-71
2023/06/16 04:26:29;;;;;;;11.48;7.72;;;;;;;-146.27;81.95;82076.84;5030294;28;20163;-71
2023/06/16 04:28:55;;;;;;;11.73;7.55;;;;;;;-146.27;81.76;81984.47;5028473;28;20203;-71
2023/06/16 04:31:28;;;;;;;11.45;8.40;;;;;;;-146.27;82.00;82046.72;5025770;28;20179;-71
2023/06/16 04:33:56;;;;;;;11.18;8.23;;;;;;;-146.27;82.15;82026.63;5030088;28;20104;-71
2023/06/16 04:36:21;;;;;;;9.70;7.43;;;;;;;-146.27;82.22;81994.50;5023668;28;20025;-71
2023/06/16 04:38:48;;;;;;;13.38;8.20;;;;;;;-146.27;81.65;81974.41;5031400;28;20060;-71
2023/06/16 04:41:14;;;;;;;9.00;7.00;;;;;;;-146.27;81.93;81904.13;5030558;28;20040;-71
2023/06/16 04:43:39;;;;;;;14.23;7.38;;;;;;;-146.27;82.40;81944.28;5033076;28;20052;-71
2023/06/16 04:46:05;;;;;;;7.03;6.05;;;;;;;-146.27;81.43;81904.13;5031879;28;20029;-71
2023/06/16 04:48:30;;;;;;;7.82;6.38;;;;;;;-146.27;80.44;81869.97;5033366;28;20036;-71
2023/06/16 04:50:57;;;;;;;8.32;6.43;;;;;;;-146.27;80.56;81845.88;5029294;28;20032;-71
2023/06/16 04:53:22;;;;;;;9.05;6.60;;;;;;;-146.27;80.21;81815.72;5030940;28;20115;-70
2023/06/16 04:55:48;;;;;;;11.40;6.38;;;;;;;-146.27;79.30;81841.84;5030662;28;20081;-71
2023/06/16 04:58:14;;;;;;;7.75;6.13;;;;;;;-146.27;78.85;81797.66;5030827;28;20561;-71
2023/06/16 05:00:39;;;;;;;10.60;6.22;;;;;;;-146.27;78.64;81749.47;5028805;28;20033;-71
2023/06/16 05:03:04;;;;;;;13.85;6.65;;;;;;;-146.27;77.37;81809.72;5024581;28;20137;-70
2023/06/16 05:05:30;;;;;;;7.72;5.72;;;;;;;-146.27;77.45;81785.59;5017525;28;20238;-70
2023/06/16 05:07:57;;;;;;;10.25;6.35;;;;;;;-146.27;77.37;81745.44;5032753;28;20157;-70
2023/06/16 05:10:22;;;;;;;8.75;6.43;;;;;;;-146.27;77.31;81729.38;5031169;28;20049;-71
2023/06/16 05:12:47;;;;;;;9.27;6.15;;;;;;;-146.27;76.49;81705.28;5028138;28;20044;-70
2023/06/16 05:15:13;;;;;;;9.63;5.90;;;;;;;-146.27;76.03;81667.09;5027445;28;20473;-70
2023/06/16 05:17:39;;;;;;;10.98;5.10;;;;;;;-146.27;75.57;81683.19;5027430;28;20072;-70
2023/06/16 05:20:05;;;;;;;8.82;4.72;;;;;;;-146.27;74.39;81665.09;5028843;28;20033;-71
2023/06/16 05:22:30;;;;;;;8.55;5.50;;;;;;;-146.27;73.19;81632.97;5029478;28;20120;-72
2023/06/16 05:24:57;;;;;;;7.63;5.10;;;;;;;-146.27;72.31;81657.06;5030624;28;20063;-71
2023/06/16 05:27:24;;;;;;;8.10;4.90;;;;;;;-146.27;69.92;81641.00;5029324;28;20065;-72
2023/06/16 05:29:53;;;;;;;9.05;5.07;;;;;;;-146.27;71.77;81608.88;5027708;28;20041;-71
2023/06/16 05:32:21;;;;;;;8.82;5.10;;;;;;;-146.27;72.27;81604.84;5029314;28;20029;-71
2023/06/16 05:34:47;;;;;;;10.68;5.63;;;;;;;-146.27;71.52;81550.63;5031846;28;20469;-71
2023/06/16 05:37:17;;;;;;;7.38;5.60;;;;;;;-146.27;69.53;81578.75;5031342;28;20030;-71
2023/06/16 05:39:43;;;;;;;9.23;6.07;;;;;;;-146.27;70.16;81588.78;5029773;28;20379;-71
2023/06/16 05:42:13;;;;;;;10.88;5.78;;;;;;;-146.27;70.63;81588.78;5030015;28;20082;-71
2023/06/16 05:44:45;;;;;;;8.10;5.32;;;;;;;-146.27;71.40;81560.66;5030431;28;20025;-71
2023/06/16 05:47:11;;;;;;;13.00;6.22;;;;;;;-146.27;71.22;81536.56;5030090;28;20025;-71
2023/06/16 05:49:37;;;;;;;19.55;5.85;;;;;;;-146.27;70.23;81520.50;5030721;28;20469;-71
2023/06/16 05:52:05;;;;;;;9.25;5.68;;;;;;;-146.27;71.69;81500.41;5030776;28;20242;-71
2023/06/16 05:54:31;;;;;;;8.48;5.32;;;;;;;-146.27;71.84;81470.28;5023093;28;20056;-72
2023/06/16 05:56:57;;;;;;;9.07;5.80;;;;;;;-146.27;70.87;81464.25;5030155;28;20148;-71
2023/06/16 05:59:22;;;;;;;6.68;5.18;;;;;;;-146.27;72.02;81454.22;5031434;28;20055;-71
2023/06/16 06:01:50;;;;;;;14.30;6.68;;;;;;;-146.27;70.79;81434.13;5027710;28;20021;-72
2023/06/16 06:04:20;;;;;;;8.68;5.35;;;;;;;-146.27;70.65;81460.25;5022708;28;20097;-72
2023/06/16 06:06:45;;;;;;;11.07;5.47;;;;;;;-146.27;70.92;81416.06;5022492;28;20052;-71
2023/06/16 06:09:11;;;;;;;11.20;6.40;;;;;;;-146.27;71.87;81402.00;5030183;28;20028;-71
2023/06/16 06:11:36;;;;;;;18.75;5.80;;;;;;;-146.27;71.40;81373.88;5028599;28;20042;-72
2023/06/16 06:14:01;;;;;;;9.75;4.90;;;;;;;-146.27;69.38;81327.69;5022683;28;20025;-72
2023/06/16 06:16:27;;;;;;;12.23;4.80;;;;;;;-146.27;68.29;81349.78;5029517;28;20474;-72
2023/06/16 06:18:53;;;;;;;7.45;4.45;;;;;;;-146.27;67.17;81313.63;5026816;28;20120;-74
2023/06/16 06:21:18;;;;;;;6.13;4.30;;;;;;;-146.27;67.52;81287.53;5029308;28;20129;-72
2023/06/16 06:23:43;;;;;;;13.35;4.22;;;;;;;-146.27;66.44;81235.31;5023302;28;20435;-72
2023/06/16 06:26:09;;;;;;;6.38;5.03;;;;;;;-146.27;66.87;81235.31;5018045;28;20036;-71
2023/06/16 06:28:34;;;;;;;11.65;5.05;;;;;;;-146.27;67.73;81167.03;5024778;28;20022;-73
2023/06/16 06:31:00;;;;;;;12.02;4.95;;;;;;;-146.27;66.54;81179.09;5026729;28;20034;-73
2023/06/16 06:33:25;;;;;;;6.97;4.45;;;;;;;-146.27;65.99;81203.19;5023418;28;20022;-72
2023/06/16 06:35:51;;;;;;;8.13;4.40;;;;;;;-146.27;65.19;81163.03;5025697;28;20029;-72
2023/06/16 06:38:17;;;;;;;8.65;4.40;;;;;;;-146.27;66.01;81106.78;5027930;28;20296;-71
2023/06/16 06:40:42;;;;;;;6.38;3.58;;;;;;;-146.27;65.76;81132.91;5030020;28;20112;-72
2023/06/16 06:43:08;;;;;;;7.57;4.00;;;;;;;-146.27;63.62;81110.81;5027817;28;20108;-72
2023/06/16 06:45:33;;;;;;;7.15;4.15;;;;;;;-146.27;63.88;81110.81;5025306;28;20056;-71
2023/06/16 06:47:58;;;;;;;9.70;4.32;;;;;;;-146.27;63.41;81086.72;5026268;28;20551;-71
2023/06/16 06:50:24;;;;;;;5.95;4.03;;;;;;;-146.27;61.71;81086.72;5027266;28;20025;-72
2023/06/16 06:52:49;;;;;;;8.38;3.80;;;;;;;-146.27;61.68;81050.56;5028443;28;20116;-71
2023/06/16 06:55:15;;;;;;;8.45;3.88;;;;;;;-146.27;62.07;81046.53;5029368;28;20029;-71
2023/06/16 06:57:42;;;;;;;6.90;3.70;;;;;;;-146.27;60.73;81012.41;5027912;28;20335;-71
2023/06/16 07:00:08;;;;;;;6.13;3.47;;;;;;;-146.27;61.74;80976.25;5027861;28;20034;-73
2023/06/16 07:02:34;;;;;;;6.80;3.47;;;;;;;-146.27;57.92;80982.28;5019087;28;20445;-70
2023/06/16 07:04:59;;;;;;;6.72;3.33;;;;;;;-146.27;57.80;80905.97;5018118;28;20037;-69
2023/06/16 07:07:24;;;;;;;7.75;3.40;;;;;;;-146.27;56.39;80916.03;5013331;28;20031;-70
2023/06/16 07:09:50;;;;;;;5.13;3.47;;;;;;;-146.27;55.59;80901.97;5016344;28;20061;-71
2023/06/16 07:12:16;;;;;;;5.78;3.20;;;;;;;-146.27;55.43;80849.75;5027134;28;20361;-71
2023/06/16 07:14:41;;;;;;;8.13;3.00;;;;;;;-146.27;52.95;80871.84;5026423;28;20029;-71
2023/06/16 07:17:07;;;;;;;4.70;2.78;;;;;;;-146.27;51.54;80837.72;5028109;28;20489;-70
2023/06/16 07:19:32;;;;;;;3.50;2.83;;;;;;;-146.27;51.16;80823.66;5025498;28;20034;-71
2023/06/16 07:21:57;;;;;;;3.28;2.47;;;;;;;-146.27;50.41;80777.47;5026461;28;20018;-73
2023/06/16 07:24:23;;;;;;;7.20;3.00;;;;;;;-146.27;49.63;80753.38;5025776;28;20025;-71
2023/06/16 07:26:48;;;;;;;5.28;3.22;;;;;;;-146.27;47.53;80749.34;5014994;28;20022;-70
2023/06/16 07:29:14;;;;;;;5.75;3.22;;;;;;;-146.27;48.67;80669.03;5028508;28;20029;-70
2023/06/16 07:31:39;;;;;;;5.47;3.10;;;;;;;-146.27;46.83;80717.22;5028633;28;20395;-71
2023/06/16 07:34:05;;;;;;;4.78;2.65;;;;;;;-146.27;45.39;80711.19;5013775;28;20044;-72
2023/06/16 07:36:31;;;;;;;6.50;3.05;;;;;;;-146.27;45.64;80669.03;5016879;28;20034;-70
2023/06/16 07:38:56;;;;;;;6.13;2.85;;;;;;;-146.27;45.08;80612.81;5021902;28;20025;-71
2023/06/16 07:41:22;;;;;;;4.28;2.70;;;;;;;-146.27;45.00;80572.66;5028571;28;20489;-71
2023/06/16 07:43:48;;;;;;;4.13;3.08;;;;;;;-146.27;43.64;80604.78;5026918;28;20033;-72
2023/06/16 07:46:14;;;;;;;5.55;2.90;;;;;;;-146.27;42.92;80590.72;5020666;28;20029;-73
2023/06/16 07:48:39;;;;;;;9.98;3.10;;;;;;;-146.27;44.15;80534.50;5025599;28;20029;-73
2023/06/16 07:51:05;;;;;;;6.03;3.17;;;;;;;-146.27;43.54;80516.44;5029755;28;20036;-73
2023/06/16 07:53:31;;;;;;;4.35;2.80;;;;;;;-146.27;43.00;80490.34;5029837;28;20104;-71
2023/06/16 07:55:56;;;;;;;4.50;2.83;;;;;;;-146.27;42.59;80494.34;5024711;28;20036;-71
2023/06/16 07:58:22;;;;;;;3.80;2.63;;;;;;;-146.27;42.24;80460.22;5018363;28;20537;-72
2023/06/16 08:00:51;;;;;;;10.88;3.22;;;;;;;-146.27;41.92;80402.00;5025980;28;21800;-71
2023/06/16 08:03:17;;;;;;;14.13;3.33;;;;;;;-146.27;41.50;80399.97;5025242;28;20108;-73
2023/06/16 08:05:43;;;;;;;5.22;2.70;;;;;;;-146.27;40.90;80357.81;5030089;28;20480;-73
2023/06/16 08:08:08;;;;;;;7.85;3.20;;;;;;;-146.27;40.41;80295.56;5025524;28;20029;-75
2023/06/16 08:10:33;;;;;;;4.30;2.75;;;;;;;-146.27;39.85;80319.66;5026783;28;20512;-72
2023/06/16 08:12:59;;;;;;;7.20;2.97;;;;;;;-146.27;39.15;80271.47;5023727;28;20449;-72
2023/06/16 08:15:24;;;;;;;3.40;2.50;;;;;;;-146.27;37.48;80339.75;5030346;28;20134;-73
2023/06/16 08:17:50;;;;;;;5.45;2.85;;;;;;;-146.27;37.67;80277.50;5026291;28;20036;-72
2023/06/16 08:20:15;;;;;;;10.55;3.10;;;;;;;-146.27;38.65;80209.25;5029467;28;20041;-73
2023/06/16 08:22:40;;;;;;;4.60;2.78;;;;;;;-146.27;37.91;80179.13;5028017;28;20079;-73
2023/06/16 08:25:07;;;;;;;5.00;2.92;;;;;;;-146.27;37.19;80173.09;5014695;28;20029;-72
2023/06/16 08:27:32;;;;;;;3.08;2.45;;;;;;;-146.27;37.54;80102.84;5009377;28;20477;-71
2023/06/16 08:29:58;;;;;;;6.38;2.90;;;;;;;-146.27;38.61;80092.78;5024360;28;20028;-70
2023/06/16 08:32:23;;;;;;;5.38;2.80;;;;;;;-146.27;38.28;80054.66;5023164;28;20446;-71
2023/06/16 08:34:48;;;;;;;4.65;2.53;;;;;;;-146.27;37.19;80018.50;5032329;28;20030;-71
2023/06/16 08:37:14;;;;;;;5.38;2.70;;;;;;;-146.27;36.43;79974.34;5033738;28;20500;-71
2023/06/16 08:39:43;;;;;;;3.60;3.08;;;;;;;-146.27;35.55;79948.25;5033931;28;20122;-71
2023/06/16 08:42:10;;;;;;;5.00;3.00;;;;;;;-146.27;36.15;79978.38;5026433;28;20030;-71
2023/06/16 08:44:40;;;;;;;4.15;2.95;;;;;;;-146.27;36.76;79942.22;5027225;28;20029;-72
2023/06/16 08:47:08;;;;;;;5.95;2.90;;;;;;;-146.27;36.68;79970.34;5031175;28;20040;-71
2023/06/16 08:49:35;;;;;;;9.98;2.83;;;;;;;-146.27;36.29;79863.94;5030847;28;20029;-72
2023/06/16 08:52:03;;;;;;;6.93;3.03;;;;;;;-146.27;36.02;79902.06;5037156;28;20398;-72
2023/06/16 08:54:36;;;;;;;4.68;2.53;;;;;;;-146.27;35.82;79833.81;5031255;28;20079;-72
2023/06/16 08:57:04;;;;;;;4.68;2.63;;;;;;;-146.27;35.90;79777.59;5028442;28;20049;-71
2023/06/16 08:59:32;;;;;;;4.40;2.58;;;;;;;-146.27;35.92;79745.50;5030908;28;20022;-72
2023/06/16 09:02:01;;;;;;;3.30;2.50;;;;;;;-146.27;35.19;79689.28;5024812;28;20687;-71
2023/06/16 09:04:28;;;;;;;5.65;2.70;;;;;;;-146.27;35.28;79645.13;5032546;28;20119;-71
2023/06/16 09:06:56;;;;;;;6.00;2.65;;;;;;;-146.27;34.77;79580.88;5030200;28;20060;-71
2023/06/16 09:09:24;;;;;;;4.03;2.78;;;;;;;-146.27;34.62;79574.84;5032315;28;20053;-71
2023/06/16 09:12:07;;;;;;;3.55;2.95;;;;;;;-146.27;34.74;79544.75;5029175;28;20029;-71
2023/06/16 09:14:33;;;;;;;3.90;2.60;;;;;;;-146.27;34.69;79456.41;5029943;28;20446;-71
2023/06/16 09:17:04;;;;;;;3.10;2.55;;;;;;;-146.27;33.36;79474.47;5026970;28;20237;-71
2023/06/16 09:19:30;;;;;;;8.10;2.65;;;;;;;-146.27;33.70;79388.16;5032159;28;20475;-71
2023/06/16 09:21:56;;;;;;;6.35;3.13;;;;;;;-146.27;32.36;79414.25;5030454;28;20045;-71
2023/06/16 09:24:28;;;;;;;2.90;2.28;;;;;;;-146.27;32.72;79348.03;5029451;28;20021;-72
2023/06/16 09:27:00;;;;;;;10.07;2.78;;;;;;;-146.27;32.68;79356.06;5030758;28;20037;-71
2023/06/16 09:29:27;;;;;;;5.13;2.95;;;;;;;-146.27;33.70;79376.13;5026999;28;20017;-71
2023/06/16 09:31:53;;;;;;;3.28;2.97;;;;;;;-146.27;32.94;79315.91;5044004;28;20526;-71
2023/06/16 09:34:19;;;;;;;5.53;2.90;;;;;;;-146.27;33.24;79303.88;5033284;28;20032;-72
2023/06/16 09:36:45;;;;;;;8.35;2.95;;;;;;;-146.27;33.47;79207.50;5034249;28;20029;-71
2023/06/16 09:39:24;;;;;;;5.45;2.97;;;;;;;-146.27;33.33;79103.16;5027390;28;20052;-71
2023/06/16 09:41:50;;;;;;;3.78;2.22;;;;;;;-146.27;33.17;79103.16;5025935;28;20025;-72
2023/06/16 09:44:16;;;;;;;6.13;2.60;;;;;;;-146.27;33.08;79123.22;5026525;28;20025;-71
2023/06/16 09:46:42;;;;;;;4.82;2.63;;;;;;;-146.27;32.54;79044.94;5027795;28;20048;-71
2023/06/16 09:49:19;;;;;;;4.40;2.78;;;;;;;-146.27;33.67;79032.91;5032554;28;20481;-71
2023/06/16 09:51:50;;;;;;;4.88;3.22;;;;;;;-146.27;34.27;79006.81;5030532;28;20029;-72
2023/06/16 09:54:16;;;;;;;7.22;2.90;;;;;;;-146.27;32.92;78918.50;5027959;28;20036;-72
2023/06/16 09:56:44;;;;;;;6.13;2.88;;;;;;;-146.27;32.32;78910.47;5042429;28;20029;-71
2023/06/16 09:59:09;;;;;;;3.88;2.88;;;;;;;-146.27;32.69;78936.56;5028026;28;20418;-71
2023/06/16 10:01:40;;;;;;;3.42;2.70;;;;;;;-146.27;33.68;78928.53;5030150;28;20108;-72
2023/06/16 10:04:07;;;;;;;6.82;2.58;;;;;;;-146.27;32.79;78846.25;5029030;28;20033;-71
2023/06/16 10:06:38;;;;;;;5.25;2.85;;;;;;;-146.27;34.70;78814.13;5030731;28;20433;-71
2023/06/16 10:09:03;;;;;;;4.78;3.28;;;;;;;-146.27;33.87;78743.88;5028554;28;20113;-71
2023/06/16 10:11:30;;;;;;;5.85;3.13;;;;;;;-146.27;33.17;78717.78;5029189;28;20488;-72
2023/06/16 10:14:00;;;;;;;3.78;2.58;;;;;;;-146.27;32.74;78717.78;5025325;28;20026;-72
2023/06/16 10:16:29;;;;;;;3.30;2.88;;;;;;;-146.27;32.28;78645.53;5031117;28;20496;-71
2023/06/16 10:18:58;;;;;;;7.32;2.80;;;;;;;-146.27;31.22;78693.72;5027398;28;20033;-71
2023/06/16 10:21:24;;;;;;;4.78;2.90;;;;;;;-146.27;30.60;78645.53;5030001;28;20128;-71
2023/06/16 10:23:51;;;;;;;4.00;2.40;;;;;;;-146.27;29.52;78695.72;5030807;28;20462;-71
2023/06/16 10:26:17;;;;;;;4.63;2.60;;;;;;;-146.27;29.90;78621.47;5029583;28;20048;-71
2023/06/16 10:28:42;;;;;;;4.25;2.60;;;;;;;-146.27;30.66;78515.09;5029931;28;20029;-71
2023/06/16 10:31:09;;;;;;;5.38;2.78;;;;;;;-146.27;30.79;78456.88;5030663;28;20490;-72
2023/06/16 10:33:55;;;;;;;9.63;3.13;;;;;;;-146.27;31.22;78318.41;5031174;28;20121;-71
2023/06/16 10:36:23;;;;;;;3.38;2.60;;;;;;;-146.27;30.48;78226.09;5024517;28;20095;-71
2023/06/16 10:39:01;;;;;;;4.93;2.95;;;;;;;-146.27;30.68;78127.78;5030129;28;20048;-72
2023/06/16 10:41:29;;;;;;;5.78;2.70;;;;;;;-146.27;28.41;78027.44;5031171;28;20317;-72
2023/06/16 10:43:55;;;;;;;5.43;2.78;;;;;;;-146.27;29.27;77943.16;5030871;28;20025;-71
2023/06/16 10:46:21;;;;;;;5.55;2.40;;;;;;;-146.27;28.63;77808.72;5030613;28;20492;-71
2023/06/16 10:49:05;;;;;;;6.53;2.72;;;;;;;-146.27;27.52;77750.53;5027598;28;20497;-72
2023/06/16 10:51:52;;;;;;;3.38;2.72;;;;;;;-146.27;27.66;77670.28;5028656;28;20489;-71
2023/06/16 10:54:43;;;;;;;5.18;3.17;;;;;;;-146.27;27.18;77650.22;5030720;28;20133;-71
2023/06/16 10:57:10;;;;;;;6.35;3.08;;;;;;;-146.27;28.48;77598.06;5027566;28;20049;-72
2023/06/16 10:59:57;;;;;;;4.05;2.63;;;;;;;-146.27;29.09;77513.78;5030313;28;20037;-72
2023/06/16 11:02:28;;;;;;;2.67;2.47;;;;;;;-146.27;27.04;77507.78;5029692;28;20060;-72
2023/06/16 11:05:08;;;;;;;6.18;3.20;;;;;;;-146.27;27.67;77497.75;5029075;28;20032;-72
2023/06/16 11:07:43;;;;;;;4.90;3.13;;;;;;;-146.27;27.81;77449.59;5029985;28;20043;-72
2023/06/16 11:10:17;;;;;;;2.95;2.63;;;;;;;-146.27;27.73;77361.31;5030614;28;20056;-71
2023/06/16 11:12:44;;;;;;;4.72;3.13;;;;;;;-146.27;27.47;77399.44;5023496;28;20057;-72